Time;durP1;ratioP1;P1;durP2;ratioP2;P2;SDS_P1;SDS_P2;PMS_P1;PMS_P2;Temp;Humidity;BMP_temperature;BMP_pressure;BME280_temperature;BME280_humidity;BME280_pressure;Samples;Min_cycle;Max_cycle;Signal;HPM_P1;HPM_P2
2022/09/13 00:01:40;;;;;;;5.63;3.33;;;16.20;99.90;;;;;;5029282;28;20030;-45
2022/09/13 00:04:05;;;;;;;3.88;2.90;;;16.20;99.90;;;;;;5028777;28;20025;-46
2022/09/13 00:06:31;;;;;;;8.20;2.85;;;16.20;99.90;;;;;;5035978;28;20059;-45
2022/09/13 00:08:57;;;;;;;8.95;3.40;;;16.20;99.90;;;;;;5045424;28;20100;-45
2022/09/13 00:11:25;;;;;;;3.35;2.92;;;16.10;99.90;;;;;;5048831;28;20032;-47
2022/09/13 00:13:52;;;;;;;3.88;3.20;;;16.10;99.90;;;;;;5035952;28;20380;-45
2022/09/13 00:16:20;;;;;;;3.20;2.90;;;16.10;99.90;;;;;;5041307;28;20100;-45
2022/09/13 00:18:46;;;;;;;3.35;2.97;;;16.10;99.90;;;;;;5036928;28;20120;-45
2022/09/13 00:21:14;;;;;;;3.58;3.10;;;16.10;99.90;;;;;;5043207;28;20028;-45
2022/09/13 00:23:43;;;;;;;7.38;3.30;;;16.20;99.90;;;;;;5053470;28;20642;-45
2022/09/13 00:26:12;;;;;;;4.65;2.65;;;16.20;99.90;;;;;;5052228;28;20697;-47
2022/09/13 00:28:38;;;;;;;11.43;3.28;;;16.20;99.90;;;;;;5048325;28;20518;-45
2022/09/13 00:31:06;;;;;;;4.43;2.92;;;16.20;99.90;;;;;;5042030;28;20029;-45
2022/09/13 00:33:32;;;;;;;5.22;2.75;;;16.30;99.90;;;;;;5052951;28;20025;-45
2022/09/13 00:36:03;;;;;;;4.75;3.35;;;16.30;99.90;;;;;;5042444;28;20161;-46
2022/09/13 00:38:29;;;;;;;6.60;3.20;;;16.20;99.90;;;;;;5013684;28;20026;-45
2022/09/13 00:40:54;;;;;;;5.93;2.78;;;16.20;99.90;;;;;;5013765;28;20108;-48
2022/09/13 00:43:38;;;;;;;4.78;3.17;;;16.20;99.90;;;;;;5013218;28;20033;-45
2022/09/13 00:46:04;;;;;;;3.67;2.75;;;16.20;99.90;;;;;;5013658;28;20046;-46
2022/09/13 00:48:32;;;;;;;5.85;3.00;;;16.20;99.90;;;;;;5027002;28;20028;-45
2022/09/13 00:50:58;;;;;;;4.72;3.30;;;16.20;99.90;;;;;;5043700;28;20013;-46
2022/09/13 00:53:32;;;;;;;4.40;2.90;;;16.20;99.90;;;;;;5052316;28;20036;-46
2022/09/13 00:56:08;;;;;;;4.57;3.25;;;16.20;99.90;;;;;;5052967;28;20033;-47
2022/09/13 00:58:59;;;;;;;8.25;3.38;;;16.20;99.90;;;;;;5052739;28;20075;-46
2022/09/13 01:01:34;;;;;;;4.18;3.28;;;16.20;99.90;;;;;;5052819;28;20017;-46
2022/09/13 01:04:01;;;;;;;5.22;3.30;;;16.10;99.90;;;;;;5052672;28;20029;-46
2022/09/13 01:06:31;;;;;;;5.60;3.40;;;16.10;99.90;;;;;;5052594;28;20082;-47
2022/09/13 01:09:02;;;;;;;4.65;3.35;;;16.10;99.90;;;;;;5052685;28;20029;-49
2022/09/13 01:11:44;;;;;;;4.10;3.22;;;16.10;99.90;;;;;;5052499;28;20024;-46
2022/09/13 01:14:10;;;;;;;4.18;3.33;;;16.10;99.90;;;;;;5051427;28;20060;-47
2022/09/13 01:16:36;;;;;;;3.70;3.30;;;16.00;99.90;;;;;;5051723;28;20082;-45
2022/09/13 01:19:01;;;;;;;7.22;3.47;;;16.00;99.90;;;;;;5045862;28;20040;-45
2022/09/13 01:21:32;;;;;;;7.68;3.28;;;16.10;99.90;;;;;;5043553;28;20029;-44
2022/09/13 01:24:24;;;;;;;4.13;3.67;;;16.00;99.90;;;;;;5050524;28;20025;-46
2022/09/13 01:27:23;;;;;;;3.53;3.22;;;16.00;99.90;;;;;;5051799;28;20018;-45
2022/09/13 01:30:15;;;;;;;4.18;2.92;;;16.00;99.90;;;;;;5045349;28;20017;-45
2022/09/13 01:33:10;;;;;;;4.57;2.92;;;16.00;99.90;;;;;;5039457;28;20112;-46
2022/09/13 01:35:57;;;;;;;4.35;3.15;;;16.10;99.90;;;;;;5052054;28;20088;-45
2022/09/13 01:39:00;;;;;;;5.90;3.70;;;16.00;99.90;;;;;;5043294;28;20024;-48
2022/09/13 01:41:44;;;;;;;5.15;3.25;;;16.10;99.90;;;;;;5011945;28;20030;-45
2022/09/13 01:44:27;;;;;;;4.20;3.28;;;16.00;99.90;;;;;;5011394;28;20666;-45
2022/09/13 01:47:05;;;;;;;4.53;3.47;;;15.90;99.90;;;;;;5010307;28;20026;-50
2022/09/13 01:50:06;;;;;;;3.65;3.13;;;15.90;99.90;;;;;;5012129;28;20033;-46
2022/09/13 01:52:52;;;;;;;5.05;3.55;;;15.90;99.90;;;;;;5031362;28;20025;-45
2022/09/13 01:55:43;;;;;;;7.15;3.95;;;15.90;99.90;;;;;;5048227;28;20032;-45
2022/09/13 01:58:30;;;;;;;4.63;3.38;;;15.90;99.90;;;;;;5049936;28;20028;-46
2022/09/13 02:01:27;;;;;;;5.13;3.25;;;15.90;99.90;;;;;;5041335;28;20017;-45
2022/09/13 02:04:22;;;;;;;4.90;3.78;;;15.90;99.90;;;;;;5050733;28;20509;-48
2022/09/13 02:06:50;;;;;;;4.90;4.13;;;15.90;99.90;;;;;;5045641;28;20037;-47
2022/09/13 02:09:20;;;;;;;4.85;3.60;;;16.00;99.90;;;;;;5041641;28;20474;-45
2022/09/13 02:11:51;;;;;;;6.10;4.05;;;16.10;99.90;;;;;;5051343;28;20055;-45
2022/09/13 02:14:26;;;;;;;6.50;3.65;;;16.10;99.90;;;;;;5051039;28;20028;-45
2022/09/13 02:17:02;;;;;;;5.90;3.88;;;16.10;99.90;;;;;;5051299;28;20086;-45
2022/09/13 02:19:35;;;;;;;4.60;3.80;;;16.20;99.90;;;;;;5050013;28;20099;-48
2022/09/13 02:22:04;;;;;;;6.43;3.72;;;16.20;99.90;;;;;;5051471;28;20032;-47
2022/09/13 02:24:39;;;;;;;4.90;3.50;;;16.20;99.90;;;;;;5043732;28;20071;-45
2022/09/13 02:27:13;;;;;;;3.55;3.25;;;16.30;99.90;;;;;;5041813;28;20017;-49
2022/09/13 02:29:44;;;;;;;4.38;3.72;;;16.30;99.90;;;;;;5046541;28;20023;-47
2022/09/13 02:32:29;;;;;;;4.50;3.38;;;16.30;99.90;;;;;;5042872;28;20887;-46
2022/09/13 02:35:20;;;;;;;5.47;3.95;;;16.40;99.90;;;;;;5051318;28;20043;-46
2022/09/13 02:37:55;;;;;;;4.18;3.78;;;16.40;99.90;;;;;;5046479;28;20021;-45
2022/09/13 02:40:25;;;;;;;6.93;4.18;;;16.40;99.90;;;;;;5042889;28;20025;-44
2022/09/13 02:43:03;;;;;;;5.53;4.10;;;16.40;99.90;;;;;;5050682;28;20028;-46
2022/09/13 02:45:40;;;;;;;4.32;3.42;;;16.40;99.90;;;;;;5050901;28;20120;-46
2022/09/13 02:48:38;;;;;;;6.38;4.18;;;16.40;99.90;;;;;;5048553;28;20021;-46
2022/09/13 02:51:32;;;;;;;5.38;3.53;;;16.40;99.90;;;;;;5039290;28;20643;-45
2022/09/13 02:54:13;;;;;;;5.07;3.58;;;16.50;99.90;;;;;;5050008;28;20028;-46
2022/09/13 02:57:09;;;;;;;6.03;3.72;;;16.50;99.90;;;;;;5050955;28;20112;-45
2022/09/13 02:59:35;;;;;;;4.63;3.60;;;16.50;99.90;;;;;;5048244;28;20044;-46
2022/09/13 03:02:12;;;;;;;7.85;4.18;;;16.50;99.90;;;;;;5051151;28;20052;-46
2022/09/13 03:04:38;;;;;;;6.13;3.80;;;16.60;99.90;;;;;;5050415;28;20013;-45
2022/09/13 03:07:09;;;;;;;4.90;3.95;;;16.60;99.90;;;;;;5049044;28;20036;-47
2022/09/13 03:09:34;;;;;;;6.50;3.80;;;16.60;99.90;;;;;;5050656;28;20025;-45
2022/09/13 03:12:41;;;;;;;6.78;3.90;;;16.60;99.90;;;;;;5050207;28;20466;-46
2022/09/13 03:15:32;;;;;;;5.53;3.75;;;16.70;99.90;;;;;;5041142;28;20022;-45
2022/09/13 03:18:26;;;;;;;4.25;3.58;;;16.70;99.90;;;;;;5019966;28;20022;-47
2022/09/13 03:21:18;;;;;;;4.85;3.83;;;16.80;99.90;;;;;;5022853;28;20439;-45
2022/09/13 03:24:16;;;;;;;6.15;3.35;;;16.80;99.90;;;;;;5009653;28;20061;-45
2022/09/13 03:27:07;;;;;;;4.82;3.67;;;16.80;99.90;;;;;;5010057;28;20041;-44
2022/09/13 03:29:44;;;;;;;9.85;4.43;;;16.80;99.90;;;;;;5021021;28;20051;-48
2022/09/13 03:32:31;;;;;;;5.38;4.20;;;16.80;99.90;;;;;;5042019;28;20024;-45
2022/09/13 03:35:27;;;;;;;4.80;3.67;;;16.80;99.90;;;;;;5050140;28;20016;-45
2022/09/13 03:38:07;;;;;;;7.35;4.80;;;16.80;99.90;;;;;;5050282;28;20025;-45
2022/09/13 03:40:42;;;;;;;7.55;4.50;;;16.80;99.90;;;;;;5050199;28;20021;-45
2022/09/13 03:43:19;;;;;;;6.60;4.88;;;16.60;99.90;;;;;;5049749;28;20033;-46
2022/09/13 03:45:51;;;;;;;9.10;5.75;;;16.40;99.90;;;;;;5029713;28;20083;-46
2022/09/13 03:48:18;;;;;;;6.82;5.28;;;16.20;99.90;;;;;;5013492;28;20037;-46
2022/09/13 03:50:46;;;;;;;11.30;5.13;;;16.00;99.90;;;;;;5019359;28;20059;-46
2022/09/13 03:53:15;;;;;;;8.35;5.78;;;15.90;99.90;;;;;;5023532;28;20033;-45
2022/09/13 03:55:42;;;;;;;10.23;5.63;;;15.80;99.90;;;;;;5029935;28;20022;-48
2022/09/13 03:58:15;;;;;;;11.77;6.25;;;15.70;99.90;;;;;;5026913;28;20034;-45
2022/09/13 04:00:41;;;;;;;8.23;6.18;;;15.60;99.90;;;;;;5029260;28;20156;-48
2022/09/13 04:03:08;;;;;;;7.90;6.55;;;15.60;99.90;;;;;;5019717;28;20125;-49
2022/09/13 04:05:33;;;;;;;12.85;7.68;;;15.50;99.90;;;;;;5017869;28;20599;-46
2022/09/13 04:08:00;;;;;;;10.15;6.97;;;15.50;99.90;;;;;;5012616;28;20140;-46
2022/09/13 04:10:26;;;;;;;12.10;7.82;;;15.50;99.90;;;;;;5008847;28;20077;-46
2022/09/13 04:12:53;;;;;;;10.30;7.65;;;15.40;99.90;;;;;;5009580;28;20085;-47
2022/09/13 04:15:19;;;;;;;13.75;7.85;;;15.40;99.90;;;;;;5009907;28;20049;-46
2022/09/13 04:17:44;;;;;;;11.18;7.78;;;15.40;99.90;;;;;;5010178;28;20380;-45
2022/09/13 04:20:10;;;;;;;10.68;7.97;;;15.30;99.90;;;;;;5009061;28;20045;-45
2022/09/13 04:22:36;;;;;;;11.43;8.02;;;15.30;99.90;;;;;;5008377;28;20088;-45
2022/09/13 04:25:02;;;;;;;11.32;7.47;;;15.30;99.90;;;;;;5010094;28;20036;-45
2022/09/13 04:27:27;;;;;;;15.07;8.23;;;15.30;99.90;;;;;;5010037;28;20581;-44
2022/09/13 04:29:53;;;;;;;13.02;8.55;;;15.20;99.90;;;;;;5023921;28;20022;-45
2022/09/13 04:32:18;;;;;;;10.68;7.78;;;15.20;99.90;;;;;;5041115;28;20033;-45
2022/09/13 04:34:44;;;;;;;12.30;8.07;;;15.20;99.90;;;;;;5046280;28;20569;-45
2022/09/13 04:37:10;;;;;;;11.15;8.05;;;15.20;99.90;;;;;;5038690;28;20009;-47
2022/09/13 04:39:35;;;;;;;14.88;8.80;;;15.30;99.90;;;;;;5049393;28;20024;-45
2022/09/13 04:42:01;;;;;;;13.82;8.85;;;15.20;99.90;;;;;;5049437;28;20120;-45
2022/09/13 04:44:27;;;;;;;14.55;8.23;;;15.30;99.90;;;;;;5049302;28;20036;-45
2022/09/13 04:46:52;;;;;;;11.52;8.48;;;15.30;99.90;;;;;;5049859;28;20021;-44
2022/09/13 04:49:19;;;;;;;12.90;8.77;;;15.30;99.90;;;;;;5049694;28;20028;-44
2022/09/13 04:51:45;;;;;;;15.27;8.82;;;15.30;99.90;;;;;;5049290;28;20494;-45
2022/09/13 04:54:11;;;;;;;11.63;7.82;;;15.30;99.90;;;;;;5049046;28;20096;-45
2022/09/13 04:56:37;;;;;;;12.40;8.38;;;15.30;99.90;;;;;;5048039;28;20546;-45
2022/09/13 04:59:02;;;;;;;12.27;8.57;;;15.30;99.90;;;;;;5049656;28;20115;-44
2022/09/13 05:01:28;;;;;;;11.40;8.43;;;15.30;99.90;;;;;;5053339;28;20021;-45
2022/09/13 05:03:54;;;;;;;11.10;8.07;;;15.40;99.90;;;;;;5052528;28;20056;-45
2022/09/13 05:06:21;;;;;;;12.32;8.32;;;15.30;99.90;;;;;;5045730;28;20069;-45
2022/09/13 05:08:53;;;;;;;13.45;7.95;;;15.30;99.90;;;;;;5047570;28;20021;-45
2022/09/13 05:11:26;;;;;;;12.73;8.65;;;15.30;99.90;;;;;;5053019;28;20049;-44
2022/09/13 05:13:54;;;;;;;14.07;9.15;;;15.30;99.90;;;;;;5052345;28;20051;-45
2022/09/13 05:16:31;;;;;;;11.52;8.45;;;15.30;99.90;;;;;;5048832;28;20025;-44
2022/09/13 05:18:57;;;;;;;10.60;7.53;;;15.30;99.90;;;;;;5043853;28;20027;-45
2022/09/13 05:21:23;;;;;;;12.32;8.30;;;15.40;99.90;;;;;;5052224;28;20092;-46
2022/09/13 05:23:50;;;;;;;13.82;8.77;;;15.40;99.90;;;;;;5039203;28;20017;-46
2022/09/13 05:26:16;;;;;;;11.93;8.35;;;15.40;99.90;;;;;;5044245;28;20013;-46
2022/09/13 05:28:42;;;;;;;13.32;7.80;;;15.40;99.90;;;;;;5051827;28;20029;-45
2022/09/13 05:31:23;;;;;;;11.48;7.93;;;15.40;99.90;;;;;;5042501;28;20020;-44
2022/09/13 05:34:13;;;;;;;10.95;7.65;;;15.50;99.90;;;;;;5046553;28;20025;-45
2022/09/13 05:36:38;;;;;;;10.82;7.68;;;15.50;99.90;;;;;;5047179;28;20127;-46
2022/09/13 05:39:05;;;;;;;10.57;7.78;;;15.60;99.90;;;;;;5042860;28;20069;-44
2022/09/13 05:41:30;;;;;;;10.52;7.53;;;15.60;99.90;;;;;;5052486;28;20056;-46
2022/09/13 05:43:56;;;;;;;9.98;7.05;;;15.60;99.90;;;;;;5039291;28;20014;-46
2022/09/13 05:46:22;;;;;;;11.60;7.72;;;15.70;99.90;;;;;;5051265;28;20024;-45
2022/09/13 05:48:48;;;;;;;10.00;7.38;;;15.70;99.90;;;;;;5040167;28;20014;-44
2022/09/13 05:51:19;;;;;;;11.05;7.32;;;15.70;99.90;;;;;;5049980;28;20028;-45
2022/09/13 05:53:46;;;;;;;11.48;8.00;;;15.80;99.90;;;;;;5045072;28;20525;-46
2022/09/13 05:56:18;;;;;;;11.50;7.43;;;15.80;99.90;;;;;;5043317;28;20475;-47
2022/09/13 05:58:47;;;;;;;9.63;7.63;;;15.90;99.90;;;;;;5036398;28;20052;-44
2022/09/13 06:01:14;;;;;;;13.10;7.68;;;15.90;99.90;;;;;;5035858;28;20025;-47
2022/09/13 06:03:40;;;;;;;10.52;8.02;;;15.90;99.90;;;;;;5031482;28;20491;-44
2022/09/13 06:06:06;;;;;;;12.10;8.23;;;15.90;99.90;;;;;;5030601;28;20025;-46
2022/09/13 06:08:33;;;;;;;13.48;8.30;;;16.00;99.90;;;;;;5031953;28;20017;-45
2022/09/13 06:11:04;;;;;;;13.40;7.80;;;16.00;99.90;;;;;;5030757;28;20025;-46
2022/09/13 06:13:31;;;;;;;11.52;8.38;;;16.10;99.90;;;;;;5031329;28;20375;-45
2022/09/13 06:15:58;;;;;;;12.38;8.25;;;16.10;99.90;;;;;;5045080;28;20104;-48
2022/09/13 06:18:25;;;;;;;8.27;7.28;;;16.20;99.90;;;;;;5050207;28;20025;-44
2022/09/13 06:20:57;;;;;;;10.48;7.88;;;16.20;99.90;;;;;;5050302;28;20021;-48
2022/09/13 06:23:23;;;;;;;11.43;7.85;;;16.20;99.90;;;;;;5049711;28;20040;-45
2022/09/13 06:25:48;;;;;;;8.63;7.47;;;16.30;99.90;;;;;;5049690;28;20025;-45
2022/09/13 06:28:13;;;;;;;12.00;7.72;;;16.30;99.90;;;;;;5042770;28;20035;-46
2022/09/13 06:30:39;;;;;;;12.55;7.80;;;16.40;99.90;;;;;;5042720;28;20017;-46
2022/09/13 06:33:04;;;;;;;9.88;7.32;;;16.40;99.90;;;;;;5050664;28;20021;-44
2022/09/13 06:35:30;;;;;;;10.88;8.35;;;16.50;99.90;;;;;;5042232;28;20015;-48
2022/09/13 06:37:57;;;;;;;13.93;8.38;;;16.50;99.90;;;;;;5041608;28;20376;-47
2022/09/13 06:40:23;;;;;;;9.18;7.40;;;16.50;99.90;;;;;;5048195;28;20037;-45
2022/09/13 06:42:49;;;;;;;9.98;7.85;;;16.50;99.90;;;;;;5049127;28;20540;-50
2022/09/13 06:45:14;;;;;;;10.50;7.38;;;16.50;99.90;;;;;;5039005;28;20104;-48
2022/09/13 06:47:40;;;;;;;9.10;7.85;;;16.60;99.90;;;;;;5043227;28;20051;-44
2022/09/13 06:50:06;;;;;;;13.93;7.68;;;16.60;99.90;;;;;;5049520;28;20024;-47
2022/09/13 06:52:32;;;;;;;11.43;7.82;;;16.70;99.90;;;;;;5047817;28;20474;-46
2022/09/13 06:54:57;;;;;;;9.63;7.38;;;16.70;99.90;;;;;;5049316;28;20044;-47
2022/09/13 06:57:23;;;;;;;12.88;8.43;;;16.80;99.90;;;;;;5049639;28;20039;-47
2022/09/13 06:59:48;;;;;;;11.07;8.27;;;16.90;99.90;;;;;;5049366;28;20029;-50
2022/09/13 07:02:14;;;;;;;11.13;7.78;;;17.00;99.90;;;;;;5049277;28;20024;-48
2022/09/13 07:04:41;;;;;;;9.75;7.38;;;17.10;99.90;;;;;;5043950;28;20021;-44
2022/09/13 07:07:06;;;;;;;11.40;8.13;;;17.20;99.90;;;;;;5038265;28;20095;-47
2022/09/13 07:09:33;;;;;;;9.35;7.32;;;17.30;99.90;;;;;;5049165;28;20399;-46
2022/09/13 07:11:59;;;;;;;9.40;7.32;;;17.30;99.90;;;;;;5049224;28;20407;-46
2022/09/13 07:14:28;;;;;;;12.30;7.45;;;17.30;99.90;;;;;;5048367;28;20048;-47
2022/09/13 07:16:54;;;;;;;7.75;6.32;;;17.50;99.90;;;;;;5047949;28;20025;-46
2022/09/13 07:19:22;;;;;;;9.48;6.35;;;17.60;99.90;;;;;;5048828;28;20046;-47
2022/09/13 07:21:49;;;;;;;10.85;6.88;;;17.70;99.90;;;;;;5048943;28;20033;-47
2022/09/13 07:24:18;;;;;;;9.52;6.95;;;17.80;99.90;;;;;;5048309;28;20528;-48
2022/09/13 07:26:44;;;;;;;12.48;7.43;;;18.00;99.90;;;;;;5049091;28;20029;-47
2022/09/13 07:29:13;;;;;;;10.25;7.00;;;18.10;99.90;;;;;;5048395;28;20029;-47
2022/09/13 07:31:44;;;;;;;10.40;6.60;;;18.20;99.90;;;;;;5035805;28;20386;-46
2022/09/13 07:34:18;;;;;;;7.55;6.35;;;18.30;99.90;;;;;;5013413;28;20034;-46
2022/09/13 07:36:45;;;;;;;7.03;6.32;;;18.40;99.90;;;;;;5008297;28;20060;-46
2022/09/13 07:39:12;;;;;;;10.93;6.30;;;18.50;99.90;;;;;;5008365;28;20112;-46
2022/09/13 07:41:37;;;;;;;9.00;6.38;;;18.50;99.90;;;;;;5008373;28;20034;-47
2022/09/13 07:44:05;;;;;;;7.25;6.38;;;18.60;99.90;;;;;;5007631;28;20105;-47
2022/09/13 07:46:31;;;;;;;6.63;5.47;;;18.70;99.90;;;;;;5007905;28;20487;-46
2022/09/13 07:48:58;;;;;;;7.53;5.68;;;18.80;99.90;;;;;;5007910;28;20034;-47
2022/09/13 07:51:26;;;;;;;8.00;6.45;;;18.70;99.90;;;;;;5007961;28;20025;-47
2022/09/13 07:53:55;;;;;;;7.63;5.63;;;18.90;99.90;;;;;;5005833;28;20026;-46
2022/09/13 07:56:23;;;;;;;6.25;5.00;;;19.00;99.90;;;;;;5008510;28;20492;-47
2022/09/13 07:58:51;;;;;;;8.63;5.50;;;19.10;99.90;;;;;;5008576;28;20277;-46
2022/09/13 08:01:19;;;;;;;8.50;5.53;;;19.20;99.90;;;;;;5032488;28;20036;-49
2022/09/13 08:03:53;;;;;;;7.40;5.25;;;19.30;99.90;;;;;;5041634;28;20035;-47
2022/09/13 08:06:19;;;;;;;8.38;5.80;;;19.50;99.90;;;;;;5047240;28;20060;-47
2022/09/13 08:08:45;;;;;;;6.57;5.20;;;19.50;99.90;;;;;;5046777;28;20108;-46
2022/09/13 08:11:17;;;;;;;6.72;5.88;;;19.50;99.90;;;;;;5047438;28;20096;-48
2022/09/13 08:13:44;;;;;;;7.10;5.57;;;19.60;99.90;;;;;;5047299;28;20375;-47
2022/09/13 08:16:09;;;;;;;7.60;5.53;;;19.70;99.90;;;;;;5047254;28;20029;-47
2022/09/13 08:18:35;;;;;;;10.80;5.68;;;19.80;99.90;;;;;;5047021;28;20040;-47
2022/09/13 08:21:01;;;;;;;7.72;5.82;;;19.90;99.90;;;;;;5047280;28;20032;-46
2022/09/13 08:23:26;;;;;;;7.95;6.10;;;19.90;99.90;;;;;;5047201;28;20526;-48
2022/09/13 08:25:53;;;;;;;9.75;5.90;;;19.80;99.90;;;;;;5047477;28;20414;-48
2022/09/13 08:28:23;;;;;;;6.50;5.22;;;19.70;99.90;;;;;;5047260;28;20032;-48
2022/09/13 08:30:49;;;;;;;7.65;6.28;;;19.50;99.90;;;;;;5040173;28;20506;-47
2022/09/13 08:33:15;;;;;;;11.98;7.75;;;19.10;99.90;;;;;;5038139;28;20056;-48
2022/09/13 08:35:48;;;;;;;9.73;7.82;;;18.80;99.90;;;;;;5047533;28;20025;-47
2022/09/13 08:38:13;;;;;;;9.30;7.00;;;18.50;99.90;;;;;;5041468;28;20116;-48
2022/09/13 08:40:42;;;;;;;14.07;8.75;;;18.20;99.90;;;;;;5049722;28;20104;-47
2022/09/13 08:43:32;;;;;;;11.43;8.88;;;17.80;99.90;;;;;;5050539;28;20028;-47
2022/09/13 08:46:03;;;;;;;11.90;8.82;;;17.60;99.90;;;;;;5035167;28;20018;-47
2022/09/13 08:48:42;;;;;;;12.00;8.50;;;17.50;99.90;;;;;;5011154;28;20033;-47
2022/09/13 08:51:39;;;;;;;12.85;8.90;;;17.40;99.90;;;;;;5020967;28;20025;-47
2022/09/13 08:54:08;;;;;;;12.32;9.25;;;17.40;99.90;;;;;;5041242;28;20021;-49
2022/09/13 08:56:54;;;;;;;12.80;9.07;;;17.40;99.90;;;;;;5049112;28;20518;-48
2022/09/13 08:59:26;;;;;;;13.85;10.00;;;17.40;99.90;;;;;;5043255;28;20119;-47
2022/09/13 09:02:24;;;;;;;14.45;10.25;;;17.40;99.90;;;;;;5051297;28;20234;-46
2022/09/13 09:05:01;;;;;;;12.43;9.70;;;17.40;99.90;;;;;;5044020;28;20545;-47
2022/09/13 09:07:31;;;;;;;15.60;9.82;;;17.30;99.90;;;;;;5030687;28;20025;-46
2022/09/13 09:10:00;;;;;;;15.00;10.52;;;17.20;99.90;;;;;;5030492;28;20364;-45
2022/09/13 09:12:37;;;;;;;16.05;11.43;;;17.20;99.90;;;;;;5032645;28;20017;-46
2022/09/13 09:15:16;;;;;;;16.63;11.90;;;17.20;99.90;;;;;;5042257;28;20017;-46
2022/09/13 09:18:20;;;;;;;17.30;12.32;;;17.30;99.90;;;;;;5047218;28;20111;-45
2022/09/13 09:20:47;;;;;;;19.92;12.63;;;17.30;99.90;;;;;;5041672;28;20041;-46
2022/09/13 09:23:38;;;;;;;13.90;10.93;;;17.50;99.90;;;;;;5045661;28;20029;-47
2022/09/13 09:26:15;;;;;;;20.00;13.35;;;17.70;99.90;;;;;;5024964;28;20541;-46
2022/09/13 09:28:43;;;;;;;16.98;11.55;;;17.80;99.90;;;;;;5013932;28;20057;-46
2022/09/13 09:31:41;;;;;;;20.48;12.88;;;17.70;99.90;;;;;;5038778;28;20079;-47
2022/09/13 09:34:09;;;;;;;18.40;12.65;;;17.80;99.90;;;;;;5047336;28;20457;-46
2022/09/13 09:36:48;;;;;;;19.65;13.25;;;17.70;99.90;;;;;;5029997;28;20033;-47
2022/09/13 09:39:15;;;;;;;19.65;13.35;;;18.10;99.90;;;;;;5030030;28;20036;-47
2022/09/13 09:41:42;;;;;;;16.55;11.02;;;18.40;99.90;;;;;;5037692;28;20013;-47
2022/09/13 09:44:21;;;;;;;17.45;12.10;;;18.50;99.90;;;;;;5019366;28;20212;-48
2022/09/13 09:46:54;;;;;;;16.05;11.95;;;18.50;99.90;;;;;;5007450;28;20033;-49
2022/09/13 09:53:00;;;;;;;15.00;10.90;;;18.40;99.90;;;;;;5027639;28;20040;-48
2022/09/13 09:55:45;;;;;;;16.17;11.95;;;18.30;99.90;;;;;;5016487;28;20068;-47
2022/09/13 09:58:15;;;;;;;17.27;12.45;;;18.20;99.90;;;;;;5011206;28;20018;-46
2022/09/13 10:00:57;;;;;;;14.00;11.18;;;18.10;99.90;;;;;;5009930;28;20029;-48
2022/09/13 10:03:26;;;;;;;15.65;11.40;;;18.00;99.90;;;;;;5036479;28;20083;-46
2022/09/13 10:06:04;;;;;;;19.88;14.88;;;18.00;99.90;;;;;;5045940;28;20072;-47
2022/09/13 10:08:33;;;;;;;23.95;16.70;;;18.00;99.90;;;;;;5050748;28;20031;-46
2022/09/13 10:11:00;;;;;;;20.35;13.52;;;18.00;99.90;;;;;;5050333;28;20036;-47
2022/09/13 10:13:27;;;;;;;16.52;11.60;;;18.10;99.90;;;;;;5049802;28;20730;-46
2022/09/13 10:16:04;;;;;;;20.40;12.68;;;18.10;99.90;;;;;;5040508;28;20060;-48
2022/09/13 10:18:35;;;;;;;19.10;12.20;;;18.20;99.90;;;;;;5033769;28;20502;-48
2022/09/13 10:21:03;;;;;;;18.38;12.35;;;18.30;99.90;;;;;;5050670;28;20024;-46
2022/09/13 10:23:31;;;;;;;19.48;12.20;;;18.30;99.90;;;;;;5037806;28;20060;-47
2022/09/13 10:26:13;;;;;;;21.25;12.55;;;18.30;99.90;;;;;;5046231;28;20031;-48
2022/09/13 10:28:44;;;;;;;20.05;13.13;;;18.30;99.90;;;;;;5046881;28;20117;-49
2022/09/13 10:31:13;;;;;;;18.75;12.88;;;18.30;99.90;;;;;;5041702;28;20013;-47
2022/09/13 10:33:55;;;;;;;15.45;10.93;;;18.30;99.90;;;;;;5047555;28;20201;-45
2022/09/13 10:36:25;;;;;;;21.42;13.30;;;18.30;99.90;;;;;;5049920;28;20036;-46
2022/09/13 10:38:55;;;;;;;18.50;12.48;;;18.10;99.90;;;;;;5038216;28;20022;-49
2022/09/13 10:41:25;;;;;;;18.30;13.88;;;18.20;99.90;;;;;;5049531;28;20060;-48
2022/09/13 10:44:01;;;;;;;19.42;12.57;;;18.20;99.90;;;;;;5038753;28;20471;-46
2022/09/13 10:46:31;;;;;;;16.05;12.13;;;18.10;99.90;;;;;;5009954;28;20365;-46
2022/09/13 10:48:57;;;;;;;20.52;13.35;;;18.20;99.90;;;;;;5032289;28;20021;-48
2022/09/13 10:51:25;;;;;;;24.30;13.70;;;18.10;99.90;;;;;;5041398;28;20317;-47
2022/09/13 10:54:14;;;;;;;18.77;12.00;;;18.10;99.90;;;;;;5040803;28;20043;-47
2022/09/13 10:56:39;;;;;;;20.98;14.27;;;18.10;99.90;;;;;;5037144;28;20017;-49
2022/09/13 10:59:23;;;;;;;17.17;11.77;;;18.20;99.90;;;;;;5045389;28;20067;-47
2022/09/13 11:01:59;;;;;;;21.17;12.57;;;18.20;99.90;;;;;;5044392;28;20025;-49
2022/09/13 11:04:49;;;;;;;13.70;11.05;;;18.30;99.90;;;;;;5042215;28;20306;-46
2022/09/13 11:07:21;;;;;;;15.48;11.15;;;18.30;99.90;;;;;;5048521;28;20021;-48
2022/09/13 11:09:49;;;;;;;15.35;10.20;;;18.30;99.90;;;;;;5039584;28;20029;-46
2022/09/13 11:12:33;;;;;;;15.00;10.68;;;18.30;99.90;;;;;;5040851;28;20029;-48
2022/09/13 11:15:17;;;;;;;21.10;12.05;;;18.30;99.90;;;;;;5040548;28;20028;-46
2022/09/13 11:18:04;;;;;;;14.55;10.85;;;18.30;99.90;;;;;;5040665;28;20036;-51
2022/09/13 11:21:15;;;;;;;16.10;10.52;;;18.30;99.90;;;;;;5042456;28;20086;-50
2022/09/13 11:24:14;;;;;;;16.10;10.90;;;18.40;99.90;;;;;;5019582;28;20033;-48
2022/09/13 11:27:17;;;;;;;12.93;9.85;;;18.50;99.90;;;;;;5011756;28;20022;-49
2022/09/13 11:30:13;;;;;;;12.38;10.27;;;18.50;99.90;;;;;;5009919;28;20038;-48
2022/09/13 11:33:02;;;;;;;21.08;12.00;;;18.60;99.90;;;;;;5030252;28;20388;-49
2022/09/13 11:36:03;;;;;;;17.88;12.45;;;18.50;99.90;;;;;;5027119;28;20053;-50
2022/09/13 11:38:57;;;;;;;19.38;13.85;;;18.50;99.90;;;;;;4970422;28;20038;-45
2022/09/13 11:41:41;;;;;;;22.33;15.50;;;18.40;99.90;;;;;;5027492;28;20124;-46
2022/09/13 11:44:41;;;;;;;21.38;15.57;;;18.30;99.90;;;;;;5028457;28;20488;-45
2022/09/13 11:47:29;;;;;;;27.90;16.15;;;18.30;99.90;;;;;;5027889;28;20033;-48
2022/09/13 11:50:13;;;;;;;23.08;15.52;;;18.30;99.90;;;;;;5028000;28;20112;-47
2022/09/13 11:53:05;;;;;;;24.40;15.82;;;18.40;99.90;;;;;;5030090;28;20029;-50
2022/09/13 11:55:48;;;;;;;21.33;15.85;;;18.40;99.90;;;;;;5012417;28;20034;-49
2022/09/13 11:58:20;;;;;;;21.08;14.23;;;18.50;99.90;;;;;;5007937;28;20395;-48
2022/09/13 12:00:49;;;;;;;24.50;15.32;;;18.50;99.90;;;;;;5033576;28;20462;-46
2022/09/13 12:03:33;;;;;;;22.35;14.02;;;18.60;99.90;;;;;;5044595;28;20087;-48
2022/09/13 12:06:04;;;;;;;20.05;14.48;;;18.50;99.90;;;;;;5034335;28;20403;-46
2022/09/13 12:08:43;;;;;;;19.85;14.20;;;18.50;99.90;;;;;;5007131;28;20034;-47
2022/09/13 12:11:11;;;;;;;24.55;15.40;;;18.40;99.90;;;;;;5040403;28;20040;-46
2022/09/13 12:13:43;;;;;;;20.77;14.13;;;18.60;99.90;;;;;;5051531;28;20469;-46
2022/09/13 12:16:16;;;;;;;21.85;13.48;;;18.70;99.90;;;;;;5043950;28;20075;-47
2022/09/13 12:18:46;;;;;;;17.73;12.07;;;18.80;99.90;;;;;;5028001;28;20056;-47
2022/09/13 12:21:23;;;;;;;16.27;11.38;;;18.80;99.90;;;;;;5026771;28;20022;-46
2022/09/13 12:24:11;;;;;;;19.70;13.95;;;18.80;99.90;;;;;;5043807;28;20545;-46
2022/09/13 12:27:13;;;;;;;18.08;13.20;;;18.80;99.90;;;;;;5028703;28;20108;-46
2022/09/13 12:29:59;;;;;;;16.85;12.60;;;18.80;99.90;;;;;;5023603;28;20034;-47
2022/09/13 12:32:25;;;;;;;17.83;12.77;;;18.80;99.90;;;;;;5034427;28;20508;-50
2022/09/13 12:35:13;;;;;;;23.05;14.45;;;18.80;99.90;;;;;;5045216;28;20033;-47
2022/09/13 12:37:50;;;;;;;18.42;12.68;;;18.90;99.90;;;;;;5050968;28;20031;-48
2022/09/13 12:40:37;;;;;;;17.45;11.95;;;18.90;99.90;;;;;;5044992;28;20017;-46
2022/09/13 12:43:18;;;;;;;15.95;11.40;;;18.90;99.90;;;;;;5043228;28;20021;-48
2022/09/13 12:46:00;;;;;;;17.33;11.85;;;18.90;99.90;;;;;;5044616;28;20025;-47
2022/09/13 12:48:49;;;;;;;16.63;12.63;;;18.90;99.90;;;;;;5045716;28;20017;-46
2022/09/13 12:51:26;;;;;;;14.38;11.23;;;19.00;99.90;;;;;;5043728;28;20020;-50
2022/09/13 12:54:35;;;;;;;18.13;11.27;;;19.20;99.90;;;;;;5045276;28;20029;-47
2022/09/13 12:57:28;;;;;;;22.20;15.70;;;19.30;99.90;;;;;;5046454;28;20029;-48
2022/09/13 13:00:11;;;;;;;17.98;12.98;;;19.40;99.90;;;;;;5040428;28;20022;-50
2022/09/13 13:02:50;;;;;;;19.20;12.95;;;19.40;99.90;;;;;;5012697;28;20106;-48
2022/09/13 13:05:26;;;;;;;17.42;12.30;;;19.50;99.90;;;;;;5041639;28;20083;-47
2022/09/13 13:08:02;;;;;;;17.48;11.75;;;19.40;99.90;;;;;;5052467;28;20439;-50
2022/09/13 13:10:34;;;;;;;26.75;13.52;;;19.50;99.90;;;;;;5032441;28;20025;-47
2022/09/13 13:13:18;;;;;;;15.13;11.43;;;19.60;99.90;;;;;;5032440;28;20395;-47
2022/09/13 13:15:43;;;;;;;15.32;10.77;;;19.60;99.90;;;;;;5021488;28;20336;-49
2022/09/13 13:18:22;;;;;;;19.40;14.43;;;19.60;99.90;;;;;;5023743;28;20533;-47